Time;durP1;ratioP1;P1;durP2;ratioP2;P2;SDS_P1;SDS_P2;PMS_P1;PMS_P2;Temp;Humidity;BMP_temperature;BMP_pressure;BME280_temperature;BME280_humidity;BME280_pressure;Samples;Min_cycle;Max_cycle;Signal;HPM_P1;HPM_P2
2023/09/22 00:02:23;;;;;;;0.50;0.50;;;;;;;21.32;62.21;100993.25;4784224;30;20807;-84
2023/09/22 00:04:49;;;;;;;0.40;0.40;;;;;;;21.37;62.13;100999.63;4786180;29;20404;-84
2023/09/22 00:07:14;;;;;;;0.80;0.80;;;;;;;21.44;61.73;101004.06;4785002;30;20969;-85
2023/09/22 00:09:45;;;;;;;0.80;0.80;;;;;;;21.47;61.56;101025.22;4783431;30;20457;-85
2023/09/22 00:12:13;;;;;;;0.20;0.20;;;;;;;21.43;61.59;101030.22;4798891;29;20396;-85
2023/09/22 00:14:38;;;;;;;0.75;0.75;;;;;;;21.46;61.58;101034.34;4783228;30;20447;-84
2023/09/22 00:17:07;;;;;;;0.30;0.30;;;;;;;21.29;61.84;101020.72;4782683;30;20448;-83
2023/09/22 00:19:38;;;;;;;0.50;0.50;;;;;;;21.19;62.46;101038.28;4784872;29;20428;-85
2023/09/22 00:22:05;;;;;;;1.02;0.47;;;;;;;21.08;62.86;101041.78;4783159;30;20408;-85
2023/09/22 00:24:31;;;;;;;0.40;0.40;;;;;;;21.16;62.65;101046.03;4782063;30;20478;-84
2023/09/22 00:26:57;;;;;;;0.20;0.20;;;;;;;21.17;62.44;101034.19;4767549;30;21026;-84
2023/09/22 00:29:23;;;;;;;0.45;0.45;;;;;;;21.22;62.11;101041.56;4782368;29;20432;-84
2023/09/22 00:31:49;;;;;;;0.50;0.40;;;;;;;21.29;61.90;101040.41;4782862;30;20416;-83
2023/09/22 00:34:14;;;;;;;0.30;0.30;;;;;;;21.19;62.03;101038.28;4767806;30;20436;-82
2023/09/22 00:36:44;;;;;;;0.50;0.50;;;;;;;21.28;61.81;101049.53;4766884;29;20420;-80
2023/09/22 00:39:13;;;;;;;0.32;0.32;;;;;;;21.30;61.65;101042.06;4767459;30;20420;-80
2023/09/22 00:41:38;;;;;;;0.30;0.30;;;;;;;21.23;61.99;101037.81;4767346;30;20423;-81
2023/09/22 00:44:07;;;;;;;0.50;0.43;;;;;;;21.28;61.83;101049.53;4766492;30;20416;-81
2023/09/22 00:46:34;;;;;;;0.43;0.43;;;;;;;21.25;61.70;101036.53;4782150;29;20492;-82
2023/09/22 00:49:03;;;;;;;0.20;0.20;;;;;;;21.20;62.09;101042.63;4773409;30;20964;-82
2023/09/22 00:51:29;;;;;;;0.30;0.30;;;;;;;21.22;61.79;101036.19;4782994;30;20924;-82
2023/09/22 00:53:55;;;;;;;0.20;0.20;;;;;;;21.26;61.79;101032.78;4783318;30;20473;-80
2023/09/22 00:56:26;;;;;;;0.63;0.50;;;;;;;21.12;61.88;101029.50;4768331;30;21059;-82
2023/09/22 00:59:11;;;;;;;0.80;0.80;;;;;;;21.13;62.22;101035.69;4783120;30;20901;-82
2023/09/22 01:01:37;;;;;;;0.20;0.20;;;;;;;21.08;62.11;101030.19;4770359;30;20492;-82
2023/09/22 01:04:05;;;;;;;0.40;0.40;;;;;;;21.04;62.18;101020.94;4782628;30;20515;-81
2023/09/22 01:06:32;;;;;;;0.68;0.40;;;;;;;21.04;62.48;101029.81;4783440;30;20915;-80
2023/09/22 01:09:00;;;;;;;0.30;0.30;;;;;;;21.07;62.42;101023.13;4767725;30;20424;-81
2023/09/22 01:11:25;;;;;;;0.20;0.20;;;;;;;21.12;62.05;101024.09;4782712;30;20446;-81
2023/09/22 01:13:53;;;;;;;0.20;0.20;;;;;;;21.10;62.04;101009.19;4780903;30;20404;-79
2023/09/22 01:16:21;;;;;;;0.43;0.30;;;;;;;21.05;62.18;101023.41;4781377;30;20444;-81
2023/09/22 01:18:46;;;;;;;0.20;0.20;;;;;;;21.12;62.01;101018.72;4781206;30;20439;-82
2023/09/22 01:21:15;;;;;;;0.30;0.30;;;;;;;21.24;61.57;101013.31;4781074;30;20458;-82
2023/09/22 01:23:43;;;;;;;0.40;0.40;;;;;;;21.33;61.19;100995.72;4781445;30;20557;-81
2023/09/22 01:26:09;;;;;;;0.22;0.22;;;;;;;21.42;61.00;100990.00;4788106;29;20415;-82
2023/09/22 01:28:34;;;;;;;0.20;0.20;;;;;;;21.48;60.82;100983.69;4787616;30;20428;-81
2023/09/22 01:31:01;;;;;;;0.25;0.25;;;;;;;21.56;60.51;100988.72;4781186;30;20565;-80
2023/09/22 01:33:27;;;;;;;0.40;0.40;;;;;;;21.65;60.43;100984.59;4781351;30;20412;-81
2023/09/22 01:35:58;;;;;;;0.30;0.30;;;;;;;21.62;60.15;100966.19;4765885;30;20419;-82
2023/09/22 01:38:26;;;;;;;0.30;0.30;;;;;;;21.48;60.90;100986.38;4766768;30;20477;-80
2023/09/22 01:40:54;;;;;;;0.30;0.30;;;;;;;21.30;61.23;100989.97;4780774;30;20419;-81
2023/09/22 01:43:22;;;;;;;0.28;0.28;;;;;;;21.22;61.71;100985.78;4780966;30;20419;-81
2023/09/22 01:45:56;;;;;;;0.20;0.20;;;;;;;21.28;61.56;100992.09;4782100;30;20795;-80
2023/09/22 01:48:22;;;;;;;0.40;0.40;;;;;;;21.35;61.18;101003.59;4786628;29;20460;-80
2023/09/22 01:50:49;;;;;;;0.30;0.30;;;;;;;21.30;61.17;100995.38;4786109;30;20515;-80
2023/09/22 01:53:14;;;;;;;0.30;0.30;;;;;;;21.34;60.98;101000.09;4782203;30;20409;-81
2023/09/22 01:55:41;;;;;;;0.20;0.20;;;;;;;21.46;60.96;101010.06;4782384;30;20416;-81
2023/09/22 01:58:13;;;;;;;0.38;0.38;;;;;;;21.46;60.54;101005.47;4782192;30;20464;-80
2023/09/22 02:00:42;;;;;;;8.77;0.75;;;;;;;21.29;61.10;101010.75;4783366;29;20416;-79
2023/09/22 02:03:08;;;;;;;0.45;0.43;;;;;;;21.24;61.21;101024.09;4783463;29;20408;-80
2023/09/22 02:05:34;;;;;;;0.30;0.30;;;;;;;21.19;61.28;101011.34;4782166;29;20412;-81
2023/09/22 02:08:00;;;;;;;0.35;0.35;;;;;;;21.15;61.44;100999.34;4767174;30;20436;-81
2023/09/22 02:10:30;;;;;;;0.50;0.43;;;;;;;21.28;60.98;101009.09;4784066;29;20480;-81
2023/09/22 02:12:59;;;;;;;0.30;0.30;;;;;;;21.39;60.64;101012.84;4784015;29;20500;-81
2023/09/22 02:15:24;;;;;;;0.30;0.30;;;;;;;21.35;60.71;101011.69;4753482;30;20428;-81
2023/09/22 02:17:50;;;;;;;0.37;0.37;;;;;;;21.35;60.56;101017.06;4783063;29;20753;-82
2023/09/22 02:20:22;;;;;;;0.30;0.30;;;;;;;21.41;60.32;101009.91;4781667;30;20477;-83
2023/09/22 02:22:51;;;;;;;0.32;0.32;;;;;;;21.46;60.16;100989.31;4783219;29;20451;-82
2023/09/22 02:25:18;;;;;;;0.30;0.30;;;;;;;21.45;60.03;100990.38;4782403;29;20404;-82
2023/09/22 02:27:44;;;;;;;0.20;0.20;;;;;;;21.51;59.93;100996.69;4781237;30;20464;-82
2023/09/22 02:30:10;;;;;;;0.30;0.30;;;;;;;21.53;60.04;100991.88;4781522;29;20409;-82
2023/09/22 02:32:41;;;;;;;0.30;0.30;;;;;;;21.44;59.97;101012.97;4781618;30;20424;-82
2023/09/22 02:35:07;;;;;;;0.20;0.20;;;;;;;21.42;60.25;101004.28;4781335;30;20781;-82
2023/09/22 02:37:36;;;;;;;0.20;0.20;;;;;;;21.49;59.96;101005.03;4781243;29;20414;-81
2023/09/22 02:40:05;;;;;;;0.52;0.40;;;;;;;21.51;59.82;100997.50;4781335;30;20404;-81
2023/09/22 02:42:31;;;;;;;0.30;0.30;;;;;;;21.37;60.05;100980.75;4766548;30;20929;-80
2023/09/22 02:45:02;;;;;;;0.10;0.10;;;;;;;21.31;60.41;100981.66;4782741;29;20514;-80
2023/09/22 02:47:28;;;;;;;0.40;0.40;;;;;;;21.37;60.28;100975.34;4782893;30;20405;-82
2023/09/22 02:49:57;;;;;;;0.25;0.25;;;;;;;21.37;60.15;100966.41;4781217;30;20443;-81
2023/09/22 02:52:23;;;;;;;0.20;0.20;;;;;;;21.31;60.18;100968.19;4782114;29;20495;-82
2023/09/22 02:54:55;;;;;;;0.35;0.30;;;;;;;21.27;60.28;100975.13;4780959;30;20873;-81
2023/09/22 02:57:21;;;;;;;0.30;0.30;;;;;;;21.07;61.21;100993.50;4780745;30;20492;-82
2023/09/22 02:59:50;;;;;;;0.17;0.17;;;;;;;21.05;61.26;100991.03;4781089;29;20495;-82
2023/09/22 03:02:16;;;;;;;0.70;0.60;;;;;;;21.14;60.97;100986.94;4769557;30;20937;-82
2023/09/22 03:04:43;;;;;;;0.30;0.30;;;;;;;21.27;60.53;100995.88;4785290;29;20442;-81
2023/09/22 03:07:11;;;;;;;0.30;0.30;;;;;;;21.24;60.35;100999.84;4783887;30;20408;-80
2023/09/22 03:09:36;;;;;;;0.33;0.33;;;;;;;21.11;60.86;101003.59;4769225;30;20511;-81
2023/09/22 03:12:05;;;;;;;1.00;1.00;;;;;;;20.95;61.50;100988.91;4785187;29;20946;-82
2023/09/22 03:14:34;;;;;;;0.43;0.40;;;;;;;20.83;61.52;100974.59;4783812;30;20808;-82
2023/09/22 03:17:04;;;;;;;0.40;0.40;;;;;;;20.81;61.72;100987.47;4784111;30;20488;-81
2023/09/22 03:19:30;;;;;;;0.20;0.20;;;;;;;20.85;61.58;100977.91;4784771;30;20527;-81
2023/09/22 03:21:58;;;;;;;1.25;0.85;;;;;;;20.78;61.73;100975.31;4784082;30;20442;-81
2023/09/22 03:24:34;;;;;;;0.20;0.20;;;;;;;20.69;62.08;100982.09;4785793;29;20440;-81
2023/09/22 03:26:59;;;;;;;0.75;0.50;;;;;;;20.74;61.91;100973.28;4785213;30;20920;-83
2023/09/22 03:29:25;;;;;;;0.35;0.35;;;;;;;20.90;61.40;100985.28;4785113;30;20520;-84
2023/09/22 03:31:50;;;;;;;0.20;0.20;;;;;;;20.96;61.10;100985.19;4784762;30;20422;-83
2023/09/22 03:34:16;;;;;;;0.30;0.30;;;;;;;21.04;60.72;100980.50;4785883;29;20940;-81
2023/09/22 03:36:42;;;;;;;0.13;0.13;;;;;;;21.07;60.69;100971.91;4785151;30;20412;-81
2023/09/22 03:39:12;;;;;;;0.37;0.30;;;;;;;21.04;60.66;100984.00;4786483;29;20430;-81
2023/09/22 03:41:41;;;;;;;0.35;0.35;;;;;;;20.90;60.90;100986.09;4784731;30;20423;-81
2023/09/22 03:44:07;;;;;;;0.20;0.20;;;;;;;20.89;61.02;100987.16;4790209;30;20423;-81
2023/09/22 03:46:32;;;;;;;0.20;0.20;;;;;;;20.97;60.74;100988.69;4790019;29;20461;-81
2023/09/22 03:48:58;;;;;;;0.20;0.20;;;;;;;21.03;60.56;100998.56;4785750;29;20543;-81
2023/09/22 03:51:24;;;;;;;0.30;0.30;;;;;;;21.12;60.30;101007.94;4785822;29;20408;-81
2023/09/22 03:53:50;;;;;;;0.90;0.80;;;;;;;21.07;60.24;101012.34;4785640;29;20408;-83
2023/09/22 03:56:15;;;;;;;0.20;0.20;;;;;;;21.04;60.44;101013.66;4769796;30;20758;-81
2023/09/22 03:58:42;;;;;;;0.20;0.20;;;;;;;21.08;60.35;101012.13;4786105;29;20898;-82
2023/09/22 04:01:08;;;;;;;0.20;0.20;;;;;;;21.11;60.25;101018.94;4786792;29;20439;-80
2023/09/22 04:03:34;;;;;;;0.27;0.27;;;;;;;21.08;60.21;101014.00;4772600;30;20840;-81
2023/09/22 04:06:01;;;;;;;0.20;0.20;;;;;;;20.95;60.58;101018.56;4786011;30;20527;-80
2023/09/22 04:08:26;;;;;;;0.40;0.40;;;;;;;20.81;60.79;101020.66;4785975;30;20429;-81
2023/09/22 04:10:52;;;;;;;0.10;0.10;;;;;;;20.56;61.71;101014.56;4785132;30;20440;-82
2023/09/22 04:13:18;;;;;;;0.20;0.20;;;;;;;20.45;62.37;101026.91;4783728;29;20489;-82
2023/09/22 04:15:45;;;;;;;0.20;0.20;;;;;;;20.40;62.65;101024.09;4784076;29;20412;-82
2023/09/22 04:18:13;;;;;;;2.75;0.52;;;;;;;20.34;62.73;101020.44;4783707;30;20539;-83
2023/09/22 04:20:49;;;;;;;0.20;0.20;;;;;;;20.44;62.58;101025.28;4784905;30;20421;-81
2023/09/22 04:23:15;;;;;;;0.27;0.27;;;;;;;20.46;62.35;101014.31;4769552;30;20459;-82
2023/09/22 04:25:44;;;;;;;0.40;0.40;;;;;;;20.48;62.38;101018.41;4784314;30;20483;-82
2023/09/22 04:28:12;;;;;;;0.40;0.40;;;;;;;20.43;62.53;101018.25;4785729;29;20428;-81
2023/09/22 04:30:39;;;;;;;0.22;0.22;;;;;;;20.40;62.67;101024.09;4785177;29;20872;-81
2023/09/22 04:33:05;;;;;;;0.43;0.43;;;;;;;20.42;62.53;101032.78;4783737;29;20438;-81
2023/09/22 04:35:32;;;;;;;0.40;0.30;;;;;;;20.57;62.37;101033.19;4784162;30;20910;-82
2023/09/22 04:38:02;;;;;;;0.30;0.30;;;;;;;20.66;61.70;101025.63;4784017;29;20455;-83
2023/09/22 04:40:34;;;;;;;0.30;0.30;;;;;;;20.54;62.24;101030.94;4784140;30;20487;-82
2023/09/22 04:43:00;;;;;;;0.20;0.20;;;;;;;20.62;62.07;101024.47;4785364;29;20400;-82
2023/09/22 04:45:26;;;;;;;0.30;0.30;;;;;;;20.73;61.67;101014.78;4784253;30;20489;-82
2023/09/22 04:47:52;;;;;;;0.30;0.30;;;;;;;20.80;61.33;101027.09;4785747;29;20513;-81
2023/09/22 04:50:18;;;;;;;0.20;0.20;;;;;;;20.90;61.21;101039.97;4784246;30;20404;-82
2023/09/22 04:52:49;;;;;;;0.30;0.30;;;;;;;20.83;61.00;101028.47;4783848;29;20477;-81
2023/09/22 04:55:18;;;;;;;0.40;0.40;;;;;;;20.60;61.83;101034.63;4783578;30;20409;-81
2023/09/22 04:57:44;;;;;;;0.80;0.70;;;;;;;20.59;62.19;101044.53;4783523;30;20440;-83
2023/09/22 05:00:21;;;;;;;0.28;0.28;;;;;;;20.50;62.40;101039.72;4785395;29;20466;-84
2023/09/22 05:02:47;;;;;;;0.30;0.30;;;;;;;20.36;62.80;101039.88;4783699;30;20405;-81
2023/09/22 05:05:19;;;;;;;0.20;0.20;;;;;;;20.49;62.45;101036.22;4784130;29;20436;-82
2023/09/22 05:07:50;;;;;;;0.90;0.50;;;;;;;20.68;61.78;101046.97;4784283;29;21036;-80
2023/09/22 05:10:19;;;;;;;0.40;0.40;;;;;;;20.64;61.78;101035.00;4783044;29;20448;-81
2023/09/22 05:12:45;;;;;;;0.28;0.28;;;;;;;20.56;62.19;101031.56;4784181;29;20424;-81
2023/09/22 05:15:10;;;;;;;0.30;0.30;;;;;;;20.54;62.23;101027.44;4782614;30;20405;-81
2023/09/22 05:17:38;;;;;;;0.23;0.23;;;;;;;20.58;62.19;101034.00;4782257;30;20423;-82
2023/09/22 05:20:11;;;;;;;0.93;0.93;;;;;;;20.60;62.32;101026.53;4782179;30;20440;-81
2023/09/22 05:22:40;;;;;;;0.32;0.32;;;;;;;20.76;61.89;101034.00;4782103;30;20446;-82
2023/09/22 05:25:06;;;;;;;0.38;0.38;;;;;;;20.81;61.71;101038.66;4781738;29;20405;-81
2023/09/22 05:27:32;;;;;;;0.40;0.40;;;;;;;20.80;61.86;101045.13;4782528;30;20396;-83
2023/09/22 05:30:02;;;;;;;0.45;0.45;;;;;;;20.69;62.39;101046.72;4781274;30;20404;-81
2023/09/22 05:32:28;;;;;;;0.33;0.33;;;;;;;20.59;62.78;101046.44;4784153;29;20405;-83
2023/09/22 05:34:57;;;;;;;0.30;0.30;;;;;;;20.72;62.69;101042.75;4781854;30;20412;-82
2023/09/22 05:37:24;;;;;;;0.30;0.30;;;;;;;20.87;62.26;101045.84;4783394;29;20454;-81
2023/09/22 05:39:51;;;;;;;0.40;0.40;;;;;;;20.89;62.37;101045.63;4780677;30;21000;-82
2023/09/22 05:42:18;;;;;;;0.37;0.37;;;;;;;20.91;62.24;101041.63;4783898;29;20570;-83
2023/09/22 05:44:44;;;;;;;1.30;0.50;;;;;;;20.96;62.19;101051.75;4782677;30;20412;-81
2023/09/22 05:47:10;;;;;;;0.40;0.40;;;;;;;21.14;61.81;101056.19;4784363;29;20419;-84
2023/09/22 05:49:36;;;;;;;0.22;0.22;;;;;;;21.19;61.65;101056.31;4782639;30;20432;-82
2023/09/22 05:52:03;;;;;;;0.30;0.30;;;;;;;21.33;61.47;101055.06;4782181;30;20431;-83
2023/09/22 05:54:30;;;;;;;0.60;0.60;;;;;;;21.32;61.43;101057.97;4783972;29;21192;-82
2023/09/22 05:56:56;;;;;;;0.20;0.20;;;;;;;21.34;61.44;101053.19;4784355;29;20412;-82
2023/09/22 05:59:26;;;;;;;0.20;0.20;;;;;;;21.41;61.43;101053.06;4782654;30;20494;-85
2023/09/22 06:01:53;;;;;;;0.20;0.20;;;;;;;21.57;61.32;101063.19;4784511;29;20683;-81
2023/09/22 06:04:25;;;;;;;0.30;0.30;;;;;;;21.49;61.29;101067.06;4785233;29;20408;-80
2023/09/22 06:06:53;;;;;;;0.30;0.30;;;;;;;21.51;61.43;101070.34;4782953;30;20442;-80
2023/09/22 06:09:21;;;;;;;0.80;0.70;;;;;;;21.63;61.17;101077.63;4784565;29;20850;-82
2023/09/22 06:11:52;;;;;;;0.60;0.60;;;;;;;21.80;60.80;101069.63;4784455;29;20401;-82
2023/09/22 06:14:20;;;;;;;0.38;0.38;;;;;;;21.91;60.72;101066.94;4783677;30;20413;-80
2023/09/22 06:16:46;;;;;;;0.50;0.50;;;;;;;22.20;60.23;101071.56;4784495;29;20931;-81
2023/09/22 06:19:15;;;;;;;0.25;0.25;;;;;;;22.26;60.09;101067.94;4782490;30;20433;-83
2023/09/22 06:21:41;;;;;;;0.30;0.30;;;;;;;22.24;60.06;101060.06;4783367;30;20419;-81
2023/09/22 06:24:07;;;;;;;0.55;0.30;;;;;;;22.40;60.07;101065.78;4785306;30;20409;-82
2023/09/22 06:26:33;;;;;;;0.20;0.20;;;;;;;22.49;59.77;101067.88;4788288;30;20417;-82
2023/09/22 06:28:59;;;;;;;0.57;0.57;;;;;;;22.59;59.58;101066.41;4768248;30;20465;-81
2023/09/22 06:31:24;;;;;;;0.30;0.30;;;;;;;22.63;59.35;101062.16;4783876;29;20416;-81
2023/09/22 06:33:52;;;;;;;0.40;0.30;;;;;;;22.60;59.43;101060.78;4782534;30;20539;-81
2023/09/22 06:36:17;;;;;;;0.50;0.50;;;;;;;22.83;59.42;101075.22;4781339;30;20989;-80
2023/09/22 06:38:44;;;;;;;0.30;0.30;;;;;;;23.13;58.91;101079.56;4765878;30;21170;-79
2023/09/22 06:41:19;;;;;;;0.20;0.20;;;;;;;23.35;57.95;101077.75;4780690;30;20458;-84
2023/09/22 06:43:46;;;;;;;0.30;0.30;;;;;;;23.27;57.83;101073.59;4791994;29;20424;-82
2023/09/22 06:46:15;;;;;;;0.40;0.40;;;;;;;23.34;57.74;101068.03;4780021;29;20416;-83
2023/09/22 06:48:43;;;;;;;0.40;0.40;;;;;;;23.43;57.42;101085.47;4765669;30;21070;-79
2023/09/22 06:51:16;;;;;;;0.30;0.30;;;;;;;23.65;57.41;101088.22;4779893;29;20432;-78
2023/09/22 06:53:46;;;;;;;0.17;0.17;;;;;;;23.81;56.96;101083.09;4765190;30;20596;-85
2023/09/22 06:56:11;;;;;;;0.20;0.20;;;;;;;23.79;56.46;101088.72;4781784;30;20464;-86
2023/09/22 06:58:41;;;;;;;0.30;0.30;;;;;;;23.67;56.87;101088.00;4768938;30;20416;-88
2023/09/22 07:01:15;;;;;;;0.20;0.20;;;;;;;23.75;56.66;101090.28;4769808;30;20437;-89
2023/09/22 07:03:45;;;;;;;0.20;0.20;;;;;;;23.89;56.68;101098.06;4768974;30;20416;-88
2023/09/22 07:06:20;;;;;;;0.30;0.30;;;;;;;24.14;56.28;101103.81;4784675;30;20448;-86
2023/09/22 07:08:49;;;;;;;0.40;0.40;;;;;;;24.06;56.18;101098.84;4776078;30;20439;-80
2023/09/22 07:11:15;;;;;;;0.28;0.28;;;;;;;23.95;55.87;101110.59;4782335;29;20498;-79
2023/09/22 07:13:53;;;;;;;0.25;0.25;;;;;;;23.99;55.95;101106.34;4786255;29;20438;-91
2023/09/22 07:16:20;;;;;;;0.40;0.40;;;;;;;24.21;55.58;101103.66;4783787;29;20769;-85
2023/09/22 07:18:47;;;;;;;0.20;0.20;;;;;;;24.26;55.58;101101.00;4784652;29;20944;-87
2023/09/22 07:21:12;;;;;;;0.20;0.20;;;;;;;24.32;55.59;101101.88;4783060;30;20508;-82
2023/09/22 07:23:38;;;;;;;0.30;0.30;;;;;;;24.38;55.24;101101.69;4782809;29;20426;-84
2023/09/22 07:26:09;;;;;;;0.30;0.30;;;;;;;24.42;55.26;101113.66;4782175;30;20533;-84
2023/09/22 07:28:36;;;;;;;0.60;0.60;;;;;;;24.38;55.26;101111.69;4782215;29;20446;-85
2023/09/22 07:31:11;;;;;;;0.50;0.50;;;;;;;24.23;55.22;101115.84;4777611;29;20439;-85
2023/09/22 07:33:39;;;;;;;0.17;0.17;;;;;;;24.37;55.08;101107.38;4780572;29;20596;-84
2023/09/22 07:36:04;;;;;;;0.20;0.20;;;;;;;24.41;54.81;101113.91;4776577;29;20430;-82
2023/09/22 07:38:35;;;;;;;0.30;0.30;;;;;;;24.39;54.82;101107.94;4777262;30;20419;-83
2023/09/22 07:41:02;;;;;;;0.20;0.20;;;;;;;24.47;54.99;101109.38;4774345;29;20420;-82
2023/09/22 07:43:29;;;;;;;0.73;0.73;;;;;;;24.56;54.77;101106.00;4777780;30;20821;-83
2023/09/22 07:46:02;;;;;;;0.73;0.57;;;;;;;24.61;54.60;101106.06;4767747;29;20424;-86
2023/09/22 07:48:30;;;;;;;0.28;0.22;;;;;;;24.71;54.36;101110.75;4786453;30;20432;-85
2023/09/22 07:50:57;;;;;;;0.20;0.20;;;;;;;24.79;54.12;101107.59;4783993;30;20427;-83
2023/09/22 07:53:27;;;;;;;0.20;0.20;;;;;;;24.90;53.82;101105.81;4787915;30;20412;-85
2023/09/22 07:55:59;;;;;;;0.85;0.85;;;;;;;24.80;53.94;101106.50;4771312;30;20933;-82
2023/09/22 07:58:28;;;;;;;0.47;0.47;;;;;;;24.89;53.69;101111.50;4785494;30;20428;-81
2023/09/22 08:00:54;;;;;;;0.38;0.38;;;;;;;24.68;53.90;101103.13;4768704;30;20488;-80
2023/09/22 08:03:21;;;;;;;0.22;0.22;;;;;;;24.77;53.99;101107.03;4772798;30;20826;-81
2023/09/22 08:05:50;;;;;;;0.73;0.73;;;;;;;24.87;53.69;101106.31;4781371;29;20428;-87
2023/09/22 08:08:17;;;;;;;0.20;0.20;;;;;;;24.91;53.45;101093.88;4765414;30;20523;-84
2023/09/22 08:10:43;;;;;;;1.40;0.70;;;;;;;24.92;53.14;101095.53;4766294;30;21042;-81
2023/09/22 08:13:09;;;;;;;0.30;0.30;;;;;;;24.98;53.04;101102.63;4778817;29;20434;-82
2023/09/22 08:15:40;;;;;;;0.22;0.22;;;;;;;25.08;52.87;101098.38;4780206;30;20416;-85
2023/09/22 08:18:10;;;;;;;0.40;0.30;;;;;;;25.00;52.66;101091.53;4770277;30;20412;-82
2023/09/22 08:20:41;;;;;;;0.45;0.35;;;;;;;24.99;52.91;101089.88;4773829;30;20522;-82
2023/09/22 08:23:07;;;;;;;0.25;0.25;;;;;;;24.98;52.84;101088.25;4785904;30;20415;-82
2023/09/22 08:25:38;;;;;;;0.30;0.30;;;;;;;24.96;52.60;101090.41;4784460;30;20419;-82
2023/09/22 08:28:05;;;;;;;0.20;0.20;;;;;;;25.04;52.16;101089.91;4783646;30;20439;-82
2023/09/22 08:30:31;;;;;;;0.65;0.65;;;;;;;25.09;51.94;101089.97;4784597;30;20428;-82
2023/09/22 08:32:58;;;;;;;0.35;0.35;;;;;;;25.17;51.94;101089.50;4765976;30;20791;-83
2023/09/22 08:35:28;;;;;;;0.40;0.40;;;;;;;25.29;51.82;101074.97;4767414;30;20936;-82
2023/09/22 08:37:55;;;;;;;0.60;0.60;;;;;;;25.16;51.88;101081.63;4751709;30;20426;-81
2023/09/22 08:40:28;;;;;;;0.28;0.28;;;;;;;25.27;51.89;101088.78;4768878;30;20421;-82
2023/09/22 08:42:55;;;;;;;0.30;0.30;;;;;;;25.42;51.57;101079.94;4755523;30;20417;-82
2023/09/22 08:45:23;;;;;;;0.30;0.30;;;;;;;25.35;51.49;101073.91;4768588;30;20487;-83
2023/09/22 08:47:51;;;;;;;0.30;0.25;;;;;;;25.48;51.54;101086.22;4767998;30;20465;-81
2023/09/22 08:50:20;;;;;;;0.45;0.45;;;;;;;25.52;51.23;101074.59;4767539;30;20783;-83
2023/09/22 08:52:49;;;;;;;0.50;0.33;;;;;;;25.46;51.12;101072.09;4767323;30;21291;-80
2023/09/22 08:55:16;;;;;;;0.40;0.40;;;;;;;25.45;51.28;101074.00;4768248;30;20402;-84
2023/09/22 08:57:44;;;;;;;0.35;0.35;;;;;;;25.53;51.16;101076.25;4768034;30;20417;-82
2023/09/22 09:00:24;;;;;;;0.20;0.20;;;;;;;25.68;50.96;101072.00;4769176;30;20406;-80
2023/09/22 09:02:51;;;;;;;0.40;0.40;;;;;;;25.86;50.81;101073.44;4769580;30;20410;-81
2023/09/22 09:05:21;;;;;;;0.20;0.20;;;;;;;25.91;50.62;101060.72;4768836;30;20406;-81
2023/09/22 09:07:48;;;;;;;0.50;0.50;;;;;;;25.79;50.55;101051.94;4769105;30;20426;-82
2023/09/22 09:10:30;;;;;;;0.22;0.22;;;;;;;25.63;50.88;101058.38;4767766;30;20421;-83
2023/09/22 09:13:05;;;;;;;0.35;0.35;;;;;;;25.72;50.88;101057.59;4769048;30;20397;-82
2023/09/22 09:15:53;;;;;;;0.28;0.28;;;;;;;25.65;50.63;101038.03;4768629;30;20418;-81
2023/09/22 09:18:20;;;;;;;0.20;0.20;;;;;;;25.83;50.57;101050.34;4767979;30;20410;-82
2023/09/22 09:20:48;;;;;;;0.30;0.30;;;;;;;25.91;50.43;101041.69;4802416;29;20410;-83
2023/09/22 09:23:29;;;;;;;0.20;0.20;;;;;;;25.90;50.09;101044.66;4757767;29;20426;-82
2023/09/22 09:25:54;;;;;;;0.20;0.20;;;;;;;26.00;50.09;101044.75;4788010;29;20422;-82
2023/09/22 09:28:21;;;;;;;0.53;0.53;;;;;;;26.23;50.06;101035.31;4802012;29;20453;-81
2023/09/22 09:30:58;;;;;;;0.35;0.35;;;;;;;26.31;49.46;101029.34;4771887;29;20904;-81
2023/09/22 09:33:30;;;;;;;0.28;0.28;;;;;;;26.41;49.59;101034.00;4787760;29;20453;-81
2023/09/22 09:35:56;;;;;;;0.28;0.28;;;;;;;26.44;49.43;101030.75;4801823;29;20471;-80
2023/09/22 09:38:27;;;;;;;0.50;0.50;;;;;;;26.41;49.75;101016.88;4787589;29;20938;-81
2023/09/22 09:41:00;;;;;;;0.50;0.50;;;;;;;26.31;49.37;101023.13;4802466;29;20415;-81
2023/09/22 09:43:46;;;;;;;1.02;0.70;;;;;;;26.23;49.48;101021.72;4792497;24;20456;-81
2023/09/22 09:46:19;;;;;;;0.20;0.20;;;;;;;26.39;49.22;101024.47;4785153;29;20477;-82
2023/09/22 09:48:46;;;;;;;0.17;0.17;;;;;;;26.48;49.14;101015.53;4784285;29;20432;-82
2023/09/22 09:51:13;;;;;;;0.30;0.30;;;;;;;26.65;49.07;101003.59;4770085;30;20446;-81
2023/09/22 09:53:47;;;;;;;0.40;0.40;;;;;;;26.80;48.94;100997.38;4784641;30;20440;-84
2023/09/22 09:56:14;;;;;;;0.65;0.65;;;;;;;26.78;48.32;100988.69;4784425;30;20958;-82
2023/09/22 09:58:40;;;;;;;0.30;0.30;;;;;;;26.75;48.75;100992.75;4768528;30;20820;-82
2023/09/22 10:01:06;;;;;;;0.30;0.30;;;;;;;26.86;48.85;100993.56;4769583;30;20420;-82
2023/09/22 10:03:39;;;;;;;0.70;0.70;;;;;;;26.99;48.74;100992.19;4785655;29;20920;-82
2023/09/22 10:06:08;;;;;;;0.30;0.30;;;;;;;27.14;48.38;101000.34;4774787;30;20479;-81
2023/09/22 10:08:39;;;;;;;0.43;0.43;;;;;;;27.21;48.75;100991.91;4787896;29;20948;-82
2023/09/22 10:11:08;;;;;;;0.63;0.63;;;;;;;27.21;48.52;100983.75;4770063;30;20471;-84
2023/09/22 10:13:36;;;;;;;0.90;0.60;;;;;;;27.28;48.43;100989.75;4784347;30;20936;-81
2023/09/22 10:16:08;;;;;;;0.20;0.20;;;;;;;27.31;48.76;100981.00;4784502;30;20424;-81
2023/09/22 10:18:46;;;;;;;0.32;0.32;;;;;;;27.35;48.23;100984.00;4784810;30;20488;-82
2023/09/22 10:21:34;;;;;;;0.60;0.60;;;;;;;27.39;47.46;100983.19;4785219;29;20424;-82
2023/09/22 10:24:28;;;;;;;0.27;0.27;;;;;;;27.41;47.14;100978.28;4785048;29;20416;-83
2023/09/22 10:26:56;;;;;;;0.30;0.30;;;;;;;27.49;47.57;100971.44;4783795;30;20611;-80
2023/09/22 10:29:34;;;;;;;0.63;0.63;;;;;;;27.49;47.55;100962.47;4791422;29;20447;-81
2023/09/22 10:32:37;;;;;;;0.15;0.15;;;;;;;27.69;47.83;100961.56;4786146;29;20416;-83
2023/09/22 10:35:10;;;;;;;0.30;0.30;;;;;;;27.77;46.84;100969.16;4786815;29;20396;-83
2023/09/22 10:37:37;;;;;;;0.20;0.20;;;;;;;27.80;46.90;100953.06;4785042;29;20936;-82
2023/09/22 10:40:16;;;;;;;0.30;0.30;;;;;;;27.78;46.91;100948.97;4784791;30;20464;-81
2023/09/22 10:42:50;;;;;;;0.30;0.30;;;;;;;27.85;46.29;100936.69;4785674;29;20400;-82
2023/09/22 10:45:28;;;;;;;0.47;0.47;;;;;;;27.97;46.13;100944.56;4786031;29;20440;-83
2023/09/22 10:48:02;;;;;;;0.75;0.75;;;;;;;27.97;45.45;100947.28;4784201;30;20509;-81
2023/09/22 10:50:30;;;;;;;0.20;0.20;;;;;;;28.05;45.85;100940.41;4782847;30;20805;-81
2023/09/22 10:53:08;;;;;;;0.80;0.80;;;;;;;28.09;46.07;100937.94;4768067;30;20481;-81
2023/09/22 10:55:42;;;;;;;0.38;0.38;;;;;;;28.07;45.02;100934.69;4768253;30;20472;-81
2023/09/22 10:58:19;;;;;;;1.10;0.32;;;;;;;28.02;44.79;100928.19;4782400;30;20503;-81
2023/09/22 11:01:08;;;;;;;0.53;0.53;;;;;;;28.12;45.18;100930.00;4753101;30;20418;-82
2023/09/22 11:03:37;;;;;;;0.30;0.30;;;;;;;28.21;44.62;100916.59;4768461;30;20420;-81
2023/09/22 11:06:10;;;;;;;0.30;0.30;;;;;;;28.34;44.27;100921.44;4782542;29;20420;-82
2023/09/22 11:08:53;;;;;;;0.60;0.60;;;;;;;28.35;44.14;100912.13;4781171;30;20451;-82
2023/09/22 11:11:20;;;;;;;0.30;0.30;;;;;;;28.39;44.35;100917.84;4780407;30;21127;-81
2023/09/22 11:13:57;;;;;;;0.30;0.30;;;;;;;28.43;44.79;100913.44;4766285;30;20428;-81
2023/09/22 11:16:24;;;;;;;0.20;0.20;;;;;;;28.45;43.29;100902.25;4783731;29;20476;-81
2023/09/22 11:19:08;;;;;;;0.47;0.47;;;;;;;28.45;43.07;100905.81;4783300;30;20557;-80
2023/09/22 11:21:41;;;;;;;0.30;0.30;;;;;;;28.52;42.28;100908.19;4784736;29;20411;-81
2023/09/22 11:24:09;;;;;;;0.30;0.30;;;;;;;28.53;42.54;100907.09;4787739;29;20420;-81
2023/09/22 11:26:46;;;;;;;0.20;0.20;;;;;;;28.59;41.78;100905.97;4788572;29;20411;-82
2023/09/22 11:29:13;;;;;;;0.30;0.30;;;;;;;28.64;41.35;100913.31;4787624;30;20428;-80
2023/09/22 11:31:49;;;;;;;0.50;0.40;;;;;;;28.73;41.96;100896.00;4787488;30;20408;-82
2023/09/22 11:34:17;;;;;;;0.53;0.53;;;;;;;28.78;41.89;100901.41;4788663;29;20418;-82